<?xml version="1.0" encoding="UTF-8" standalone="no" ?>
<gpx xmlns="http://www.topografix.com/GPX/1/1" xmlns:xsi="http://www.w3.org/2001/XMLSchema-instance" xsi:schemaLocation="http://www.topografix.com/GPX/1/1 http://www.topografix.com/GPX/1/1/gpx.xsd" version="1.1" creator="VisuGPX - https://www.visugpx.com">
  <metadata>
    <name>RPM Gr 3a : LA BRAGUE - LE BRUGUET</name>
    <desc><![CDATA[Départ Valbonne, direction sud - monter les escaliers - La Gonelle par la piste - descendre en direction du vallon du Bruguet - rejoindre directement le pont de la Verrière par la piste - retour à Valbonne en longeant constamment la Brague - Visite de Valbonne et de l'abbaye.]]></desc>
  </metadata>
  <trk>
    <name><![CDATA[Randonnée du 27/01/2019 à 15:48]]></name>
    <trkseg>
      <trkpt lat="43.64072" lon="7.00854">
        <ele>188</ele>
        <time>2019-01-27T16:00:51+01:00</time>
      </trkpt>
      <trkpt lat="43.64003" lon="7.00847">
        <ele>180</ele>
        <time>2019-01-27T16:00:56+01:00</time>
      </trkpt>
      <trkpt lat="43.63882" lon="7.00869">
        <ele>211</ele>
        <time>2019-01-27T16:01:01+01:00</time>
      </trkpt>
      <trkpt lat="43.63784" lon="7.0083">
        <ele>218</ele>
        <time>2019-01-27T16:01:06+01:00</time>
      </trkpt>
      <trkpt lat="43.63724" lon="7.00777">
        <ele>212</ele>
        <time>2019-01-27T16:01:11+01:00</time>
      </trkpt>
      <trkpt lat="43.63634" lon="7.00749">
        <ele>219</ele>
        <time>2019-01-27T16:01:16+01:00</time>
      </trkpt>
      <trkpt lat="43.63573" lon="7.00704">
        <ele>222</ele>
        <time>2019-01-27T16:01:21+01:00</time>
      </trkpt>
      <trkpt lat="43.63516" lon="7.00852">
        <ele>240</ele>
        <time>2019-01-27T16:01:26+01:00</time>
      </trkpt>
      <trkpt lat="43.6352" lon="7.00888">
        <ele>243</ele>
        <time>2019-01-27T16:01:31+01:00</time>
      </trkpt>
      <trkpt lat="43.63494" lon="7.00884">
        <ele>249</ele>
        <time>2019-01-27T16:01:36+01:00</time>
      </trkpt>
      <trkpt lat="43.63429" lon="7.01013">
        <ele>260</ele>
        <time>2019-01-27T16:01:41+01:00</time>
      </trkpt>
      <trkpt lat="43.63536" lon="7.01332">
        <ele>264</ele>
        <time>2019-01-27T16:01:46+01:00</time>
      </trkpt>
      <trkpt lat="43.63567" lon="7.01577">
        <ele>254</ele>
        <time>2019-01-27T16:01:51+01:00</time>
      </trkpt>
      <trkpt lat="43.63584" lon="7.01631">
        <ele>252</ele>
        <time>2019-01-27T16:01:56+01:00</time>
      </trkpt>
      <trkpt lat="43.63587" lon="7.01712">
        <ele>250</ele>
        <time>2019-01-27T16:02:01+01:00</time>
      </trkpt>
      <trkpt lat="43.63573" lon="7.01766">
        <ele>246</ele>
        <time>2019-01-27T16:02:06+01:00</time>
      </trkpt>
      <trkpt lat="43.63587" lon="7.01901">
        <ele>244</ele>
        <time>2019-01-27T16:02:11+01:00</time>
      </trkpt>
      <trkpt lat="43.63572" lon="7.01989">
        <ele>243</ele>
        <time>2019-01-27T16:02:16+01:00</time>
      </trkpt>
      <trkpt lat="43.63589" lon="7.02023">
        <ele>244</ele>
        <time>2019-01-27T16:02:21+01:00</time>
      </trkpt>
      <trkpt lat="43.636" lon="7.02088">
        <ele>243</ele>
        <time>2019-01-27T16:02:26+01:00</time>
      </trkpt>
      <trkpt lat="43.63629" lon="7.02124">
        <ele>241</ele>
        <time>2019-01-27T16:02:31+01:00</time>
      </trkpt>
      <trkpt lat="43.63623" lon="7.02178">
        <ele>242</ele>
        <time>2019-01-27T16:02:36+01:00</time>
      </trkpt>
      <trkpt lat="43.63477" lon="7.02193">
        <ele>240</ele>
        <time>2019-01-27T16:02:41+01:00</time>
      </trkpt>
      <trkpt lat="43.63412" lon="7.02227">
        <ele>235</ele>
        <time>2019-01-27T16:02:46+01:00</time>
      </trkpt>
      <trkpt lat="43.63357" lon="7.02382">
        <ele>227</ele>
        <time>2019-01-27T16:02:51+01:00</time>
      </trkpt>
      <trkpt lat="43.6335" lon="7.0242">
        <ele>222</ele>
        <time>2019-01-27T16:02:56+01:00</time>
      </trkpt>
      <trkpt lat="43.6339" lon="7.0245">
        <ele>221</ele>
        <time>2019-01-27T16:03:01+01:00</time>
      </trkpt>
      <trkpt lat="43.63427" lon="7.02452">
        <ele>219</ele>
        <time>2019-01-27T16:03:06+01:00</time>
      </trkpt>
      <trkpt lat="43.6343" lon="7.02476">
        <ele>217</ele>
        <time>2019-01-27T16:03:11+01:00</time>
      </trkpt>
      <trkpt lat="43.63416" lon="7.02521">
        <ele>218</ele>
        <time>2019-01-27T16:03:16+01:00</time>
      </trkpt>
      <trkpt lat="43.63426" lon="7.02585">
        <ele>215</ele>
        <time>2019-01-27T16:03:21+01:00</time>
      </trkpt>
      <trkpt lat="43.63427" lon="7.02686">
        <ele>212</ele>
        <time>2019-01-27T16:03:26+01:00</time>
      </trkpt>
      <trkpt lat="43.63345" lon="7.0268">
        <ele>206</ele>
        <time>2019-01-27T16:03:31+01:00</time>
      </trkpt>
      <trkpt lat="43.63275" lon="7.02688">
        <ele>201</ele>
        <time>2019-01-27T16:03:36+01:00</time>
      </trkpt>
      <trkpt lat="43.6321" lon="7.02663">
        <ele>191</ele>
        <time>2019-01-27T16:03:41+01:00</time>
      </trkpt>
      <trkpt lat="43.63134" lon="7.02691">
        <ele>181</ele>
        <time>2019-01-27T16:03:46+01:00</time>
      </trkpt>
      <trkpt lat="43.63072" lon="7.02736">
        <ele>167</ele>
        <time>2019-01-27T16:03:51+01:00</time>
      </trkpt>
      <trkpt lat="43.63006" lon="7.02836">
        <ele>161</ele>
        <time>2019-01-27T16:03:56+01:00</time>
      </trkpt>
      <trkpt lat="43.62961" lon="7.02965">
        <ele>154</ele>
        <time>2019-01-27T16:04:01+01:00</time>
      </trkpt>
      <trkpt lat="43.62954" lon="7.03075">
        <ele>151</ele>
        <time>2019-01-27T16:04:06+01:00</time>
      </trkpt>
      <trkpt lat="43.62982" lon="7.03128">
        <ele>151</ele>
        <time>2019-01-27T16:04:11+01:00</time>
      </trkpt>
      <trkpt lat="43.62961" lon="7.03152">
        <ele>152</ele>
        <time>2019-01-27T16:04:16+01:00</time>
      </trkpt>
      <trkpt lat="43.63005" lon="7.0324">
        <ele>150</ele>
        <time>2019-01-27T16:04:21+01:00</time>
      </trkpt>
      <trkpt lat="43.63041" lon="7.03317">
        <ele>151</ele>
        <time>2019-01-27T16:04:26+01:00</time>
      </trkpt>
      <trkpt lat="43.63073" lon="7.03459">
        <ele>148</ele>
        <time>2019-01-27T16:04:31+01:00</time>
      </trkpt>
      <trkpt lat="43.63087" lon="7.03497">
        <ele>144</ele>
        <time>2019-01-27T16:04:36+01:00</time>
      </trkpt>
      <trkpt lat="43.63118" lon="7.03579">
        <ele>142</ele>
        <time>2019-01-27T16:04:41+01:00</time>
      </trkpt>
      <trkpt lat="43.63171" lon="7.0366">
        <ele>138</ele>
        <time>2019-01-27T16:04:46+01:00</time>
      </trkpt>
      <trkpt lat="43.63171" lon="7.03712">
        <ele>145</ele>
        <time>2019-01-27T16:04:51+01:00</time>
      </trkpt>
      <trkpt lat="43.63112" lon="7.03645">
        <ele>161</ele>
        <time>2019-01-27T16:04:56+01:00</time>
      </trkpt>
      <trkpt lat="43.63112" lon="7.03667">
        <ele>164</ele>
        <time>2019-01-27T16:05:01+01:00</time>
      </trkpt>
      <trkpt lat="43.631" lon="7.03658">
        <ele>166</ele>
        <time>2019-01-27T16:05:06+01:00</time>
      </trkpt>
      <trkpt lat="43.631" lon="7.03684">
        <ele>168</ele>
        <time>2019-01-27T16:05:11+01:00</time>
      </trkpt>
      <trkpt lat="43.63089" lon="7.03673">
        <ele>170</ele>
        <time>2019-01-27T16:05:16+01:00</time>
      </trkpt>
      <trkpt lat="43.63086" lon="7.0368">
        <ele>171</ele>
        <time>2019-01-27T16:05:21+01:00</time>
      </trkpt>
      <trkpt lat="43.62982" lon="7.03598">
        <ele>186</ele>
        <time>2019-01-27T16:05:26+01:00</time>
      </trkpt>
      <trkpt lat="43.62926" lon="7.03587">
        <ele>192</ele>
        <time>2019-01-27T16:05:31+01:00</time>
      </trkpt>
      <trkpt lat="43.6289" lon="7.03564">
        <ele>196</ele>
        <time>2019-01-27T16:05:36+01:00</time>
      </trkpt>
      <trkpt lat="43.62862" lon="7.03579">
        <ele>200</ele>
        <time>2019-01-27T16:05:41+01:00</time>
      </trkpt>
      <trkpt lat="43.62856" lon="7.03579">
        <ele>200</ele>
        <time>2019-01-27T16:05:46+01:00</time>
      </trkpt>
      <trkpt lat="43.62857" lon="7.03622">
        <ele>201</ele>
        <time>2019-01-27T16:05:51+01:00</time>
      </trkpt>
      <trkpt lat="43.62882" lon="7.03706">
        <ele>204</ele>
        <time>2019-01-27T16:05:56+01:00</time>
      </trkpt>
      <trkpt lat="43.62895" lon="7.03772">
        <ele>205</ele>
        <time>2019-01-27T16:06:01+01:00</time>
      </trkpt>
      <trkpt lat="43.62895" lon="7.03804">
        <ele>203</ele>
        <time>2019-01-27T16:06:06+01:00</time>
      </trkpt>
      <trkpt lat="43.62918" lon="7.03849">
        <ele>202</ele>
        <time>2019-01-27T16:06:11+01:00</time>
      </trkpt>
      <trkpt lat="43.62919" lon="7.03909">
        <ele>201</ele>
        <time>2019-01-27T16:06:16+01:00</time>
      </trkpt>
      <trkpt lat="43.62896" lon="7.03991">
        <ele>198</ele>
        <time>2019-01-27T16:06:21+01:00</time>
      </trkpt>
      <trkpt lat="43.62935" lon="7.04077">
        <ele>195</ele>
        <time>2019-01-27T16:06:26+01:00</time>
      </trkpt>
      <trkpt lat="43.62961" lon="7.04032">
        <ele>195</ele>
        <time>2019-01-27T16:06:31+01:00</time>
      </trkpt>
      <trkpt lat="43.63002" lon="7.03982">
        <ele>186</ele>
        <time>2019-01-27T16:06:36+01:00</time>
      </trkpt>
      <trkpt lat="43.63034" lon="7.03982">
        <ele>181</ele>
        <time>2019-01-27T16:06:41+01:00</time>
      </trkpt>
      <trkpt lat="43.63155" lon="7.04098">
        <ele>168</ele>
        <time>2019-01-27T16:06:46+01:00</time>
      </trkpt>
      <trkpt lat="43.6319" lon="7.04135">
        <ele>159</ele>
        <time>2019-01-27T16:06:51+01:00</time>
      </trkpt>
      <trkpt lat="43.63201" lon="7.0419">
        <ele>162</ele>
        <time>2019-01-27T16:06:56+01:00</time>
      </trkpt>
      <trkpt lat="43.63228" lon="7.04236">
        <ele>155</ele>
        <time>2019-01-27T16:07:01+01:00</time>
      </trkpt>
      <trkpt lat="43.63246" lon="7.04287">
        <ele>156</ele>
        <time>2019-01-27T16:07:06+01:00</time>
      </trkpt>
      <trkpt lat="43.63278" lon="7.04311">
        <ele>146</ele>
        <time>2019-01-27T16:07:11+01:00</time>
      </trkpt>
      <trkpt lat="43.63298" lon="7.04343">
        <ele>147</ele>
        <time>2019-01-27T16:07:16+01:00</time>
      </trkpt>
      <trkpt lat="43.63325" lon="7.04375">
        <ele>143</ele>
        <time>2019-01-27T16:07:21+01:00</time>
      </trkpt>
      <trkpt lat="43.63356" lon="7.04474">
        <ele>142</ele>
        <time>2019-01-27T16:07:26+01:00</time>
      </trkpt>
      <trkpt lat="43.63356" lon="7.04585">
        <ele>137</ele>
        <time>2019-01-27T16:07:31+01:00</time>
      </trkpt>
      <trkpt lat="43.63314" lon="7.04645">
        <ele>139</ele>
        <time>2019-01-27T16:07:36+01:00</time>
      </trkpt>
      <trkpt lat="43.63291" lon="7.04712">
        <ele>135</ele>
        <time>2019-01-27T16:07:41+01:00</time>
      </trkpt>
      <trkpt lat="43.63287" lon="7.04798">
        <ele>130</ele>
        <time>2019-01-27T16:07:46+01:00</time>
      </trkpt>
      <trkpt lat="43.63319" lon="7.04875">
        <ele>120</ele>
        <time>2019-01-27T16:07:51+01:00</time>
      </trkpt>
      <trkpt lat="43.63326" lon="7.04899">
        <ele>120</ele>
        <time>2019-01-27T16:07:56+01:00</time>
      </trkpt>
      <trkpt lat="43.63356" lon="7.04939">
        <ele>117</ele>
        <time>2019-01-27T16:08:01+01:00</time>
      </trkpt>
      <trkpt lat="43.63357" lon="7.05006">
        <ele>116</ele>
        <time>2019-01-27T16:08:06+01:00</time>
      </trkpt>
      <trkpt lat="43.63336" lon="7.05139">
        <ele>109</ele>
        <time>2019-01-27T16:08:11+01:00</time>
      </trkpt>
      <trkpt lat="43.63373" lon="7.0515">
        <ele>104</ele>
        <time>2019-01-27T16:08:16+01:00</time>
      </trkpt>
      <trkpt lat="43.63404" lon="7.05128">
        <ele>101</ele>
        <time>2019-01-27T16:08:21+01:00</time>
      </trkpt>
      <trkpt lat="43.63441" lon="7.05083">
        <ele>95</ele>
        <time>2019-01-27T16:08:26+01:00</time>
      </trkpt>
      <trkpt lat="43.63444" lon="7.04929">
        <ele>95</ele>
        <time>2019-01-27T16:08:31+01:00</time>
      </trkpt>
      <trkpt lat="43.63449" lon="7.04866">
        <ele>95</ele>
        <time>2019-01-27T16:08:36+01:00</time>
      </trkpt>
      <trkpt lat="43.63463" lon="7.04804">
        <ele>96</ele>
        <time>2019-01-27T16:08:41+01:00</time>
      </trkpt>
      <trkpt lat="43.63468" lon="7.04682">
        <ele>97</ele>
        <time>2019-01-27T16:08:46+01:00</time>
      </trkpt>
      <trkpt lat="43.63472" lon="7.04583">
        <ele>98</ele>
        <time>2019-01-27T16:08:51+01:00</time>
      </trkpt>
      <trkpt lat="43.63419" lon="7.04521">
        <ele>113</ele>
        <time>2019-01-27T16:08:56+01:00</time>
      </trkpt>
      <trkpt lat="43.63404" lon="7.04418">
        <ele>109</ele>
        <time>2019-01-27T16:09:01+01:00</time>
      </trkpt>
      <trkpt lat="43.63353" lon="7.04263">
        <ele>107</ele>
        <time>2019-01-27T16:09:06+01:00</time>
      </trkpt>
      <trkpt lat="43.63305" lon="7.04225">
        <ele>111</ele>
        <time>2019-01-27T16:09:11+01:00</time>
      </trkpt>
      <trkpt lat="43.63292" lon="7.04178">
        <ele>113</ele>
        <time>2019-01-27T16:09:16+01:00</time>
      </trkpt>
      <trkpt lat="43.63306" lon="7.04126">
        <ele>110</ele>
        <time>2019-01-27T16:09:21+01:00</time>
      </trkpt>
      <trkpt lat="43.63301" lon="7.04113">
        <ele>111</ele>
        <time>2019-01-27T16:09:26+01:00</time>
      </trkpt>
      <trkpt lat="43.63246" lon="7.04014">
        <ele>112</ele>
        <time>2019-01-27T16:09:31+01:00</time>
      </trkpt>
      <trkpt lat="43.63247" lon="7.03976">
        <ele>114</ele>
        <time>2019-01-27T16:09:36+01:00</time>
      </trkpt>
      <trkpt lat="43.63246" lon="7.03901">
        <ele>118</ele>
        <time>2019-01-27T16:09:41+01:00</time>
      </trkpt>
      <trkpt lat="43.63258" lon="7.03871">
        <ele>120</ele>
        <time>2019-01-27T16:09:46+01:00</time>
      </trkpt>
      <trkpt lat="43.63351" lon="7.038">
        <ele>123</ele>
        <time>2019-01-27T16:09:51+01:00</time>
      </trkpt>
      <trkpt lat="43.63381" lon="7.03798">
        <ele>123</ele>
        <time>2019-01-27T16:09:56+01:00</time>
      </trkpt>
      <trkpt lat="43.63401" lon="7.03796">
        <ele>124</ele>
        <time>2019-01-27T16:10:01+01:00</time>
      </trkpt>
      <trkpt lat="43.63419" lon="7.03804">
        <ele>122</ele>
        <time>2019-01-27T16:10:06+01:00</time>
      </trkpt>
      <trkpt lat="43.63457" lon="7.0383">
        <ele>122</ele>
        <time>2019-01-27T16:10:11+01:00</time>
      </trkpt>
      <trkpt lat="43.63538" lon="7.03761">
        <ele>135</ele>
        <time>2019-01-27T16:10:16+01:00</time>
      </trkpt>
      <trkpt lat="43.63539" lon="7.03742">
        <ele>136</ele>
        <time>2019-01-27T16:10:21+01:00</time>
      </trkpt>
      <trkpt lat="43.63525" lon="7.03684">
        <ele>134</ele>
        <time>2019-01-27T16:10:26+01:00</time>
      </trkpt>
      <trkpt lat="43.63522" lon="7.03658">
        <ele>138</ele>
        <time>2019-01-27T16:10:31+01:00</time>
      </trkpt>
      <trkpt lat="43.63534" lon="7.03624">
        <ele>141</ele>
        <time>2019-01-27T16:10:36+01:00</time>
      </trkpt>
      <trkpt lat="43.63578" lon="7.03598">
        <ele>141</ele>
        <time>2019-01-27T16:10:41+01:00</time>
      </trkpt>
      <trkpt lat="43.6359" lon="7.03523">
        <ele>144</ele>
        <time>2019-01-27T16:10:46+01:00</time>
      </trkpt>
      <trkpt lat="43.63589" lon="7.03465">
        <ele>147</ele>
        <time>2019-01-27T16:10:51+01:00</time>
      </trkpt>
      <trkpt lat="43.63567" lon="7.03517">
        <ele>151</ele>
        <time>2019-01-27T16:10:56+01:00</time>
      </trkpt>
      <trkpt lat="43.63451" lon="7.03628">
        <ele>164</ele>
        <time>2019-01-27T16:11:01+01:00</time>
      </trkpt>
      <trkpt lat="43.63395" lon="7.03648">
        <ele>168</ele>
        <time>2019-01-27T16:11:06+01:00</time>
      </trkpt>
      <trkpt lat="43.63328" lon="7.03603">
        <ele>178</ele>
        <time>2019-01-27T16:11:11+01:00</time>
      </trkpt>
      <trkpt lat="43.63275" lon="7.03538">
        <ele>184</ele>
        <time>2019-01-27T16:11:16+01:00</time>
      </trkpt>
      <trkpt lat="43.63275" lon="7.03504">
        <ele>188</ele>
        <time>2019-01-27T16:11:21+01:00</time>
      </trkpt>
      <trkpt lat="43.63275" lon="7.03446">
        <ele>195</ele>
        <time>2019-01-27T16:11:26+01:00</time>
      </trkpt>
      <trkpt lat="43.63233" lon="7.03435">
        <ele>196</ele>
        <time>2019-01-27T16:11:31+01:00</time>
      </trkpt>
      <trkpt lat="43.63191" lon="7.03381">
        <ele>198</ele>
        <time>2019-01-27T16:11:36+01:00</time>
      </trkpt>
      <trkpt lat="43.63228" lon="7.03401">
        <ele>201</ele>
        <time>2019-01-27T16:11:41+01:00</time>
      </trkpt>
      <trkpt lat="43.63376" lon="7.0336">
        <ele>203</ele>
        <time>2019-01-27T16:11:46+01:00</time>
      </trkpt>
      <trkpt lat="43.63458" lon="7.03289">
        <ele>201</ele>
        <time>2019-01-27T16:11:51+01:00</time>
      </trkpt>
      <trkpt lat="43.63492" lon="7.03253">
        <ele>200</ele>
        <time>2019-01-27T16:11:56+01:00</time>
      </trkpt>
      <trkpt lat="43.6351" lon="7.03191">
        <ele>198</ele>
        <time>2019-01-27T16:12:01+01:00</time>
      </trkpt>
      <trkpt lat="43.63517" lon="7.03068">
        <ele>197</ele>
        <time>2019-01-27T16:12:06+01:00</time>
      </trkpt>
      <trkpt lat="43.63517" lon="7.0301">
        <ele>195</ele>
        <time>2019-01-27T16:12:11+01:00</time>
      </trkpt>
      <trkpt lat="43.63522" lon="7.02888">
        <ele>192</ele>
        <time>2019-01-27T16:12:16+01:00</time>
      </trkpt>
      <trkpt lat="43.63502" lon="7.02836">
        <ele>191</ele>
        <time>2019-01-27T16:12:21+01:00</time>
      </trkpt>
      <trkpt lat="43.63496" lon="7.02789">
        <ele>193</ele>
        <time>2019-01-27T16:12:26+01:00</time>
      </trkpt>
      <trkpt lat="43.63569" lon="7.02738">
        <ele>187</ele>
        <time>2019-01-27T16:12:31+01:00</time>
      </trkpt>
      <trkpt lat="43.63606" lon="7.02665">
        <ele>183</ele>
        <time>2019-01-27T16:12:36+01:00</time>
      </trkpt>
      <trkpt lat="43.63628" lon="7.02628">
        <ele>186</ele>
        <time>2019-01-27T16:12:41+01:00</time>
      </trkpt>
      <trkpt lat="43.63623" lon="7.02605">
        <ele>188</ele>
        <time>2019-01-27T16:12:46+01:00</time>
      </trkpt>
      <trkpt lat="43.63679" lon="7.02553">
        <ele>196</ele>
        <time>2019-01-27T16:12:51+01:00</time>
      </trkpt>
      <trkpt lat="43.6375" lon="7.02482">
        <ele>203</ele>
        <time>2019-01-27T16:12:56+01:00</time>
      </trkpt>
      <trkpt lat="43.63792" lon="7.02401">
        <ele>204</ele>
        <time>2019-01-27T16:13:01+01:00</time>
      </trkpt>
      <trkpt lat="43.63806" lon="7.02377">
        <ele>202</ele>
        <time>2019-01-27T16:13:06+01:00</time>
      </trkpt>
      <trkpt lat="43.63831" lon="7.02212">
        <ele>205</ele>
        <time>2019-01-27T16:13:11+01:00</time>
      </trkpt>
      <trkpt lat="43.63809" lon="7.02143">
        <ele>203</ele>
        <time>2019-01-27T16:13:16+01:00</time>
      </trkpt>
      <trkpt lat="43.63814" lon="7.02032">
        <ele>195</ele>
        <time>2019-01-27T16:13:21+01:00</time>
      </trkpt>
      <trkpt lat="43.63843" lon="7.01916">
        <ele>189</ele>
        <time>2019-01-27T16:13:26+01:00</time>
      </trkpt>
      <trkpt lat="43.63839" lon="7.01882">
        <ele>189</ele>
        <time>2019-01-27T16:13:31+01:00</time>
      </trkpt>
      <trkpt lat="43.63843" lon="7.01819">
        <ele>184</ele>
        <time>2019-01-27T16:13:36+01:00</time>
      </trkpt>
      <trkpt lat="43.63857" lon="7.01858">
        <ele>179</ele>
        <time>2019-01-27T16:13:41+01:00</time>
      </trkpt>
      <trkpt lat="43.63873" lon="7.01757">
        <ele>171</ele>
        <time>2019-01-27T16:13:46+01:00</time>
      </trkpt>
      <trkpt lat="43.63856" lon="7.01701">
        <ele>173</ele>
        <time>2019-01-27T16:13:51+01:00</time>
      </trkpt>
      <trkpt lat="43.63836" lon="7.01665">
        <ele>178</ele>
        <time>2019-01-27T16:13:56+01:00</time>
      </trkpt>
      <trkpt lat="43.63834" lon="7.01643">
        <ele>176</ele>
        <time>2019-01-27T16:14:01+01:00</time>
      </trkpt>
      <trkpt lat="43.63853" lon="7.01609">
        <ele>173</ele>
        <time>2019-01-27T16:14:06+01:00</time>
      </trkpt>
      <trkpt lat="43.63843" lon="7.01538">
        <ele>180</ele>
        <time>2019-01-27T16:14:11+01:00</time>
      </trkpt>
      <trkpt lat="43.63851" lon="7.01459">
        <ele>187</ele>
        <time>2019-01-27T16:14:16+01:00</time>
      </trkpt>
      <trkpt lat="43.63875" lon="7.01375">
        <ele>197</ele>
        <time>2019-01-27T16:14:21+01:00</time>
      </trkpt>
      <trkpt lat="43.63878" lon="7.01289">
        <ele>198</ele>
        <time>2019-01-27T16:14:26+01:00</time>
      </trkpt>
      <trkpt lat="43.63865" lon="7.01251">
        <ele>194</ele>
        <time>2019-01-27T16:14:31+01:00</time>
      </trkpt>
      <trkpt lat="43.63881" lon="7.01189">
        <ele>192</ele>
        <time>2019-01-27T16:14:36+01:00</time>
      </trkpt>
      <trkpt lat="43.64038" lon="7.00976">
        <ele>188</ele>
        <time>2019-01-27T16:14:41+01:00</time>
      </trkpt>
      <trkpt lat="43.64053" lon="7.00942">
        <ele>188</ele>
        <time>2019-01-27T16:14:46+01:00</time>
      </trkpt>
      <trkpt lat="43.64061" lon="7.00867">
        <ele>187</ele>
        <time>2019-01-27T16:14:51+01:00</time>
      </trkpt>
    </trkseg>
  </trk>
</gpx>